createdAt,value
2022-09-13T00:01:22.852Z,32.97
2022-09-13T00:03:50.834Z,31.65
2022-09-13T00:06:19.456Z,34.95
2022-09-13T00:08:47.824Z,29.75
2022-09-13T00:11:36.132Z,30.45
2022-09-13T00:14:07.390Z,37.70
2022-09-13T00:16:35.510Z,33.67
2022-09-13T00:19:03.938Z,28.30
2022-09-13T00:21:34.683Z,30.70
2022-09-13T00:24:02.852Z,32.58
2022-09-13T00:26:31.481Z,31.95
2022-09-13T00:28:59.642Z,29.77
2022-09-13T00:31:28.487Z,32.53
2022-09-13T00:34:01.275Z,30.15
2022-09-13T00:36:52.943Z,31.15
2022-09-13T00:39:32.212Z,31.73
2022-09-13T00:42:13.720Z,35.95
2022-09-13T00:45:02.795Z,33.17
2022-09-13T00:47:37.876Z,31.15
2022-09-13T00:50:27.378Z,33.00
2022-09-13T00:53:03.169Z,31.35
2022-09-13T00:55:41.639Z,32.42
2022-09-13T00:58:20.434Z,28.40
2022-09-13T01:00:49.016Z,32.75
2022-09-13T01:03:18.171Z,32.08
2022-09-13T01:05:48.683Z,31.60
2022-09-13T01:08:22.550Z,31.10
2022-09-13T01:10:54.211Z,35.03
2022-09-13T01:13:25.481Z,32.28
2022-09-13T01:15:55.496Z,35.50
2022-09-13T01:18:24.564Z,30.58
2022-09-13T01:21:20.949Z,31.33
2022-09-13T01:24:10.094Z,29.35
2022-09-13T01:26:56.182Z,31.58
2022-09-13T01:29:39.140Z,30.00
2022-09-13T01:32:29.650Z,28.92
2022-09-13T01:35:17.094Z,32.25
2022-09-13T01:37:52.840Z,35.10
2022-09-13T01:40:47.667Z,30.88
2022-09-13T01:43:25.368Z,34.85
2022-09-13T01:45:56.927Z,28.85
2022-09-13T01:48:48.287Z,29.88
2022-09-13T01:51:21.882Z,33.35
2022-09-13T01:54:00.487Z,31.40
2022-09-13T01:57:02.965Z,32.13
2022-09-13T01:59:44.154Z,31.60
2022-09-13T02:02:24.268Z,33.38
2022-09-13T02:04:57.269Z,31.50
2022-09-13T02:07:32.758Z,32.45
2022-09-13T02:10:06.638Z,32.70
2022-09-13T02:12:35.526Z,29.95
2022-09-13T02:15:28.180Z,30.13
2022-09-13T02:18:11.362Z,30.05
2022-09-13T02:20:42.026Z,31.08
2022-09-13T02:23:15.379Z,29.67
2022-09-13T02:25:43.259Z,34.28
2022-09-13T02:28:17.417Z,28.15
2022-09-13T02:30:49.724Z,30.73
2022-09-13T02:33:23.936Z,31.23
2022-09-13T02:35:56.378Z,32.92
2022-09-13T02:38:32.661Z,31.92
2022-09-13T02:41:15.398Z,34.90
2022-09-13T02:43:46.752Z,30.60
2022-09-13T02:46:38.871Z,38.35
2022-09-13T02:49:46.512Z,29.88
2022-09-13T02:54:46.043Z,25.42
2022-09-13T02:57:16.877Z,34.08
2022-09-13T02:59:46.891Z,31.65
2022-09-13T03:02:17.090Z,31.15
2022-09-13T03:04:46.942Z,33.63
2022-09-13T03:07:15.706Z,30.60
2022-09-13T03:09:55.352Z,33.38
2022-09-13T03:12:51.031Z,38.35
2022-09-13T03:15:43.388Z,33.75
2022-09-13T03:18:25.304Z,32.72
2022-09-13T03:21:15.258Z,35.78
2022-09-13T03:24:08.490Z,41.30
2022-09-13T03:26:55.405Z,47.70
2022-09-13T03:29:31.797Z,46.67
2022-09-13T03:32:23.210Z,46.00
2022-09-13T03:34:53.539Z,51.75
2022-09-13T03:37:45.621Z,54.15
2022-09-13T03:40:16.858Z,65.90
2022-09-13T03:42:54.922Z,66.20
2022-09-13T03:45:26.755Z,82.70
2022-09-13T03:47:56.043Z,82.40
2022-09-13T03:50:24.470Z,82.60
2022-09-13T03:52:58.136Z,83.57
2022-09-13T03:55:26.103Z,96.30
2022-09-13T03:57:54.763Z,107.65
2022-09-13T04:00:24.539Z,101.53
2022-09-13T04:02:52.702Z,114.07
2022-09-13T04:05:22.055Z,113.55
2022-09-13T04:07:50.485Z,115.80
2022-09-13T04:10:21.670Z,117.85
2022-09-13T04:12:50.782Z,113.15
2022-09-13T04:15:18.828Z,104.70
2022-09-13T04:17:46.834Z,100.78
2022-09-13T04:20:15.685Z,95.88
2022-09-13T04:22:43.636Z,90.00
2022-09-13T04:25:13.675Z,84.15
2022-09-13T04:27:42.003Z,88.13
2022-09-13T04:30:10.411Z,83.47
2022-09-13T04:32:39.604Z,85.13
2022-09-13T04:35:09.453Z,77.40
2022-09-13T04:37:39.403Z,82.72
2022-09-13T04:40:08.402Z,80.35
2022-09-13T04:42:37.003Z,75.45
2022-09-13T04:45:07.269Z,78.63
2022-09-13T04:47:36.559Z,77.07
2022-09-13T04:50:05.077Z,72.05
2022-09-13T04:52:34.728Z,63.17
2022-09-13T04:55:03.238Z,55.30
2022-09-13T04:57:31.375Z,51.78
2022-09-13T05:00:03.183Z,48.17
2022-09-13T05:02:31.771Z,43.60
2022-09-13T05:05:00.212Z,40.72
2022-09-13T05:07:29.747Z,35.30
2022-09-13T05:09:59.531Z,35.20
2022-09-13T05:12:35.030Z,38.47
2022-09-13T05:15:07.273Z,38.88
2022-09-13T05:17:35.770Z,35.35
2022-09-13T05:20:06.358Z,35.72
2022-09-13T05:22:34.844Z,33.10
2022-09-13T05:25:12.050Z,34.92
2022-09-13T05:27:41.987Z,36.85
2022-09-13T05:30:12.570Z,38.90
2022-09-13T05:33:17.152Z,43.33
2022-09-13T05:35:50.281Z,36.72
2022-09-13T05:38:18.896Z,37.60
2022-09-13T05:40:48.027Z,36.47
2022-09-13T05:43:26.322Z,36.90
2022-09-13T05:46:13.277Z,40.70
2022-09-13T05:48:44.131Z,38.63
2022-09-13T05:51:16.445Z,38.97
2022-09-13T05:53:46.315Z,40.03
2022-09-13T05:56:17.741Z,36.05
2022-09-13T05:58:48.758Z,37.17
2022-09-13T06:01:18.313Z,33.70
2022-09-13T06:03:58.001Z,42.20
2022-09-13T06:06:29.244Z,36.83
2022-09-13T06:10:15.958Z,36.25
2022-09-13T06:12:59.311Z,35.03
2022-09-13T06:15:31.817Z,38.72
2022-09-13T06:18:02.265Z,38.15
2022-09-13T06:20:31.407Z,39.90
2022-09-13T06:23:03.128Z,36.67
2022-09-13T06:25:31.505Z,41.38
2022-09-13T06:28:03.887Z,34.70
2022-09-13T06:31:15.918Z,41.33
2022-09-13T06:34:04.189Z,40.78
2022-09-13T06:36:33.199Z,42.55
2022-09-13T06:39:02.388Z,44.28
2022-09-13T06:41:33.802Z,45.00
2022-09-13T06:44:04.969Z,48.63
2022-09-13T06:46:35.599Z,48.75
2022-09-13T06:49:12.101Z,47.90
2022-09-13T06:51:41.248Z,43.05
2022-09-13T06:54:12.343Z,49.10
2022-09-13T06:56:41.263Z,47.53
2022-09-13T06:59:11.141Z,48.90
2022-09-13T07:01:59.123Z,47.03
2022-09-13T07:04:31.688Z,46.47
2022-09-13T07:07:01.032Z,47.20
2022-09-13T07:09:31.537Z,41.78
2022-09-13T07:12:09.128Z,42.83
2022-09-13T07:14:41.684Z,46.50
2022-09-13T07:17:09.839Z,43.42
2022-09-13T07:20:15.023Z,46.53
2022-09-13T07:22:49.008Z,41.60
2022-09-13T07:26:05.610Z,45.53
2022-09-13T07:28:57.308Z,43.40
2022-09-13T07:32:05.338Z,44.17
2022-09-13T07:34:42.604Z,41.30
2022-09-13T07:37:10.634Z,40.38
2022-09-13T07:39:46.111Z,39.38
2022-09-13T07:42:15.472Z,40.60
2022-09-13T07:44:44.088Z,38.40
2022-09-13T07:47:13.029Z,34.45
2022-09-13T07:49:41.450Z,39.95
2022-09-13T07:52:10.827Z,36.53
2022-09-13T07:54:48.752Z,33.83
2022-09-13T07:57:49.995Z,31.98
2022-09-13T08:00:18.781Z,33.85
2022-09-13T08:02:46.907Z,38.72
2022-09-13T08:05:24.471Z,37.40
2022-09-13T08:08:01.277Z,33.25
2022-09-13T08:10:29.644Z,34.42
2022-09-13T08:12:58.862Z,29.95
2022-09-13T08:15:30.991Z,31.50
2022-09-13T08:17:59.941Z,29.35
2022-09-13T08:20:28.910Z,27.67
2022-09-13T08:22:57.146Z,30.65
2022-09-13T08:25:28.294Z,28.70
2022-09-13T08:27:56.641Z,30.33
2022-09-13T08:30:38.429Z,31.15
2022-09-13T08:33:09.153Z,28.08
2022-09-13T08:35:39.570Z,32.15
2022-09-13T08:38:35.985Z,25.77
2022-09-13T08:41:24.405Z,28.20
2022-09-13T08:44:26.874Z,27.70
2022-09-13T08:47:55.168Z,25.80
2022-09-13T08:50:40.729Z,24.67
2022-09-13T08:53:50.989Z,27.05
2022-09-13T08:56:52.664Z,23.73
2022-09-13T08:59:52.234Z,22.98
2022-09-13T09:10:50.431Z,24.45
2022-09-13T09:13:36.985Z,23.48
2022-09-13T09:16:27.687Z,23.08
2022-09-13T09:19:18.339Z,18.33
2022-09-13T09:21:51.601Z,18.00
2022-09-13T09:24:24.079Z,16.50
2022-09-13T09:26:57.896Z,17.88
2022-09-13T09:29:38.483Z,16.83
2022-09-13T09:32:32.974Z,13.52
2022-09-13T09:36:10.423Z,18.25
2022-09-13T09:38:46.539Z,12.63
2022-09-13T09:41:40.821Z,10.88
2022-09-13T09:44:23.717Z,10.93
2022-09-13T09:46:56.953Z,10.05
2022-09-13T09:49:59.200Z,9.90
2022-09-13T09:52:52.642Z,11.80
2022-09-13T09:55:23.170Z,9.43
2022-09-13T09:57:58.527Z,9.77
2022-09-13T10:01:48.510Z,7.40
2022-09-13T10:04:22.459Z,9.88
2022-09-13T10:07:45.638Z,8.60
2022-09-13T10:13:31.552Z,8.60
2022-09-13T10:16:13.297Z,8.38
2022-09-13T10:18:48.822Z,7.80
2022-09-13T10:21:25.002Z,6.90
2022-09-13T10:24:17.100Z,5.93
2022-09-13T10:26:49.441Z,6.18
2022-09-13T10:29:24.727Z,6.82
2022-09-13T10:32:29.598Z,5.43
2022-09-13T10:35:29.286Z,6.72
2022-09-13T10:38:01.235Z,5.45
2022-09-13T10:44:10.549Z,5.78
2022-09-13T10:53:06.006Z,8.32
2022-09-13T10:56:23.038Z,6.93
2022-09-13T10:59:24.263Z,6.45
2022-09-13T11:05:56.154Z,5.03
2022-09-13T11:08:49.531Z,13.30
2022-09-13T11:11:33.778Z,15.30
2022-09-13T11:14:29.207Z,8.35
2022-09-13T11:17:38.626Z,5.90
2022-09-13T11:20:32.017Z,10.30
2022-09-13T11:23:19.742Z,6.10
2022-09-13T11:25:58.292Z,5.60
2022-09-13T11:28:48.883Z,5.22
2022-09-13T11:31:36.985Z,6.03
2022-09-13T11:34:05.436Z,9.05
2022-09-13T11:36:58.864Z,9.32
2022-09-13T11:39:36.622Z,6.03
2022-09-13T11:42:17.723Z,5.03
2022-09-13T11:44:59.042Z,4.60
2022-09-13T11:47:42.759Z,5.68
2022-09-13T11:50:33.403Z,5.85
2022-09-13T11:53:14.095Z,9.02
2022-09-13T11:56:23.527Z,5.00
2022-09-13T11:59:01.266Z,6.80
2022-09-13T12:01:41.192Z,9.40
2022-09-13T12:04:17.513Z,5.25
2022-09-13T12:11:25.000Z,5.65
2022-09-13T12:14:28.037Z,8.70
2022-09-13T12:17:11.653Z,6.05
2022-09-13T12:19:50.620Z,6.97
2022-09-13T12:22:19.744Z,6.55
2022-09-13T12:24:51.697Z,5.00
2022-09-13T12:27:41.590Z,5.15
2022-09-13T12:30:22.313Z,5.68
2022-09-13T12:33:17.069Z,4.25
2022-09-13T12:36:26.203Z,4.85
2022-09-13T12:39:06.211Z,6.32
2022-09-13T12:42:48.845Z,7.32
2022-09-13T12:46:05.113Z,10.48
2022-09-13T12:49:10.073Z,7.40
2022-09-13T12:52:30.870Z,7.40
2022-09-13T12:55:45.998Z,6.82
2022-09-13T12:58:35.102Z,10.65
2022-09-13T13:01:26.863Z,7.05
2022-09-13T13:04:04.633Z,7.28
2022-09-13T13:06:34.368Z,8.00
2022-09-13T13:09:28.704Z,7.82
2022-09-13T13:12:02.576Z,8.27
2022-09-13T13:14:40.103Z,6.47
2022-09-13T13:17:38.373Z,9.27
2022-09-13T13:20:44.286Z,7.88
2022-09-13T13:23:32.549Z,8.38
2022-09-13T13:26:21.683Z,6.90
2022-09-13T13:29:18.226Z,7.38
2022-09-13T13:31:47.575Z,6.47
2022-09-13T13:34:18.805Z,7.07
2022-09-13T13:36:49.707Z,6.50
2022-09-13T13:39:23.785Z,7.25
2022-09-13T13:42:22.723Z,6.57
2022-09-13T13:45:01.618Z,7.38
2022-09-13T13:47:30.088Z,6.15
2022-09-13T13:50:15.488Z,6.32
2022-09-13T13:52:55.657Z,9.18
2022-09-13T13:55:54.840Z,7.63
2022-09-13T14:03:15.769Z,8.27
2022-09-13T14:06:24.280Z,6.45
2022-09-13T14:09:59.966Z,5.90
2022-09-13T14:13:28.694Z,6.13
2022-09-13T14:16:05.838Z,6.15
2022-09-13T14:23:33.827Z,6.57
2022-09-13T14:26:44.893Z,9.73
2022-09-13T14:29:25.921Z,6.25
2022-09-13T14:31:59.464Z,7.10
2022-09-13T14:34:35.508Z,6.28
2022-09-13T14:37:19.644Z,9.73
2022-09-13T14:43:06.155Z,8.43
2022-09-13T14:48:44.268Z,8.55
2022-09-13T14:51:49.066Z,8.20
2022-09-13T14:54:39.164Z,9.23
2022-09-13T14:57:29.029Z,9.45
2022-09-13T15:00:00.821Z,8.18
2022-09-13T15:02:32.789Z,9.27
2022-09-13T15:05:01.305Z,16.13
2022-09-13T15:07:32.250Z,10.82
2022-09-13T15:10:21.706Z,9.98
2022-09-13T15:12:55.318Z,11.73
2022-09-13T15:15:27.890Z,11.27
2022-09-13T15:18:05.259Z,11.68
2022-09-13T15:20:59.060Z,13.17
2022-09-13T15:23:34.550Z,10.45
2022-09-13T15:26:06.828Z,9.95
2022-09-13T15:28:51.374Z,10.73
2022-09-13T15:31:33.563Z,10.43
2022-09-13T15:34:12.196Z,10.98
2022-09-13T15:36:40.361Z,11.45
2022-09-13T15:39:09.006Z,11.95
2022-09-13T15:41:39.406Z,10.40
2022-09-13T15:44:09.156Z,9.60
2022-09-13T15:46:54.422Z,7.40
2022-09-13T15:49:25.182Z,6.97
2022-09-13T15:52:01.908Z,9.18
2022-09-13T15:54:37.875Z,8.25
2022-09-13T15:59:35.630Z,13.35
2022-09-13T16:02:30.398Z,11.32
2022-09-13T16:04:58.752Z,10.32
2022-09-13T16:07:29.939Z,8.20
2022-09-13T16:09:59.271Z,15.38
2022-09-13T16:12:32.756Z,10.85
2022-09-13T16:15:02.835Z,9.80
2022-09-13T16:17:30.864Z,10.05
2022-09-13T16:19:59.547Z,11.52
2022-09-13T16:22:27.655Z,10.10
2022-09-13T16:24:56.571Z,9.93
2022-09-13T16:27:29.632Z,10.38
2022-09-13T16:30:03.250Z,9.37
2022-09-13T16:32:37.493Z,12.25
2022-09-13T16:35:10.486Z,13.57
2022-09-13T16:37:50.312Z,12.38
2022-09-13T16:40:44.127Z,10.38
2022-09-13T16:43:35.898Z,9.63
2022-09-13T16:46:09.345Z,11.75
2022-09-13T16:48:38.804Z,13.43
2022-09-13T16:51:11.329Z,13.70
2022-09-13T16:53:43.284Z,19.52
2022-09-13T16:56:13.579Z,19.90
2022-09-13T16:59:05.598Z,18.27
2022-09-13T17:01:37.035Z,16.95
2022-09-13T17:04:06.988Z,16.10
2022-09-13T17:09:29.079Z,11.90
2022-09-13T17:11:59.132Z,17.00
2022-09-13T17:14:54.412Z,15.73
2022-09-13T17:17:43.640Z,12.95
2022-09-13T17:20:20.888Z,11.15
2022-09-13T17:22:50.200Z,14.98
2022-09-13T17:25:25.940Z,10.23
2022-09-13T17:27:57.262Z,16.35
2022-09-13T17:30:29.562Z,13.25
2022-09-13T17:33:01.165Z,9.43
2022-09-13T17:35:36.007Z,7.60
2022-09-13T17:38:10.539Z,8.05
2022-09-13T17:40:39.948Z,13.35
2022-09-13T17:46:42.576Z,10.95
2022-09-13T17:52:26.193Z,11.90
2022-09-13T18:03:43.735Z,14.50
2022-09-13T18:07:25.538Z,17.08
2022-09-13T18:11:13.561Z,18.70
2022-09-13T18:19:05.057Z,23.02
2022-09-13T18:21:53.990Z,20.05
2022-09-13T18:24:40.535Z,21.95
2022-09-13T18:27:33.176Z,19.95
2022-09-13T18:30:10.721Z,23.70
2022-09-13T18:32:40.078Z,22.52
2022-09-13T18:35:08.973Z,21.77
2022-09-13T18:37:37.111Z,23.02
2022-09-13T18:40:10.393Z,21.45
2022-09-13T18:43:01.285Z,22.15
2022-09-13T18:48:49.156Z,30.55
2022-09-13T18:51:19.617Z,20.95
2022-09-13T18:58:00.964Z,18.67
2022-09-13T19:01:19.255Z,19.65
2022-09-13T19:04:01.284Z,21.83
2022-09-13T19:07:21.969Z,21.48
2022-09-13T19:10:03.138Z,21.58
2022-09-13T19:12:57.983Z,20.38
2022-09-13T19:15:35.679Z,24.95
2022-09-13T19:18:16.793Z,22.33
2022-09-13T19:21:06.729Z,23.05
2022-09-13T19:23:58.490Z,20.60
2022-09-13T19:26:28.845Z,28.88
2022-09-13T19:32:28.857Z,25.33
2022-09-13T19:34:59.959Z,26.63
2022-09-13T19:37:30.119Z,22.70
2022-09-13T19:40:28.747Z,27.17
2022-09-13T19:43:02.568Z,27.95
2022-09-13T19:48:44.884Z,28.58
2022-09-13T19:51:39.320Z,33.00
2022-09-13T19:54:40.337Z,36.83
2022-09-13T19:57:13.194Z,37.97
2022-09-13T19:59:55.613Z,37.42
2022-09-13T20:02:45.487Z,38.28
2022-09-13T20:05:34.516Z,42.83
2022-09-13T20:10:56.416Z,46.67
2022-09-13T20:13:28.171Z,35.60
2022-09-13T20:22:59.586Z,41.15
2022-09-13T20:25:32.483Z,34.47
2022-09-13T20:28:03.251Z,39.92
2022-09-13T20:30:37.696Z,41.67
2022-09-13T20:33:07.522Z,42.47
2022-09-13T20:35:43.561Z,41.95
2022-09-13T20:38:21.674Z,29.27
2022-09-13T20:41:25.292Z,23.63
2022-09-13T20:44:49.240Z,19.00
2022-09-13T20:47:28.747Z,17.25
2022-09-13T20:51:35.077Z,14.90
2022-09-13T20:54:20.140Z,14.02
2022-09-13T20:57:29.267Z,14.55
2022-09-13T21:00:51.825Z,13.98
2022-09-13T21:03:46.825Z,16.15
2022-09-13T21:07:18.503Z,13.43
2022-09-13T21:09:47.692Z,14.75
2022-09-13T21:12:16.249Z,14.52
2022-09-13T21:14:58.574Z,17.05
2022-09-13T21:17:29.089Z,16.70
2022-09-13T21:20:00.012Z,13.82
2022-09-13T21:22:29.761Z,15.80
2022-09-13T21:25:04.901Z,16.00
2022-09-13T21:27:47.333Z,16.33
2022-09-13T21:30:16.199Z,15.88
2022-09-13T21:32:44.820Z,14.40
2022-09-13T21:35:12.938Z,18.63
2022-09-13T21:37:47.107Z,15.57
2022-09-13T21:40:15.242Z,17.27
2022-09-13T21:42:43.401Z,17.73
2022-09-13T21:45:11.475Z,16.02
2022-09-13T21:47:39.674Z,16.55
2022-09-13T21:50:08.814Z,18.20
2022-09-13T21:52:42.591Z,19.00
2022-09-13T21:55:12.120Z,16.88
2022-09-13T21:57:40.310Z,21.20
2022-09-13T22:00:14.193Z,20.33
2022-09-13T22:02:44.119Z,19.10
2022-09-13T22:05:12.077Z,19.10
2022-09-13T22:07:40.100Z,18.13
2022-09-13T22:10:10.337Z,17.35
2022-09-13T22:12:38.301Z,17.77
2022-09-13T22:15:06.959Z,18.23
2022-09-13T22:17:35.334Z,18.13
2022-09-13T22:20:03.259Z,16.33
2022-09-13T22:22:31.639Z,17.48
2022-09-13T22:25:01.130Z,16.55
2022-09-13T22:27:29.272Z,15.50
2022-09-13T22:29:57.444Z,14.80
2022-09-13T22:32:29.857Z,18.13
2022-09-13T22:34:58.624Z,16.75
2022-09-13T22:37:30.067Z,20.55
2022-09-13T22:39:59.502Z,15.38
2022-09-13T22:42:27.759Z,14.40
2022-09-13T22:44:55.631Z,17.15
2022-09-13T22:47:26.385Z,13.90
2022-09-13T22:49:54.244Z,14.68
2022-09-13T22:52:21.940Z,14.70
2022-09-13T22:54:51.087Z,14.10
2022-09-13T22:57:18.911Z,16.60
2022-09-13T22:59:47.032Z,17.42
2022-09-13T23:02:14.959Z,15.15
2022-09-13T23:04:42.782Z,16.05
2022-09-13T23:07:10.739Z,18.17
2022-09-13T23:09:41.263Z,14.80
2022-09-13T23:12:35.399Z,19.60
2022-09-13T23:15:03.521Z,15.00
2022-09-13T23:17:31.998Z,18.33
2022-09-13T23:19:59.971Z,14.38
2022-09-13T23:22:28.064Z,18.80
2022-09-13T23:24:56.583Z,18.42
2022-09-13T23:27:27.085Z,19.17
2022-09-13T23:29:55.971Z,17.52
2022-09-13T23:32:27.396Z,14.63
2022-09-13T23:34:55.395Z,19.33
2022-09-13T23:37:25.798Z,15.02
2022-09-13T23:39:55.351Z,13.85
2022-09-13T23:42:43.428Z,14.10
2022-09-13T23:45:17.998Z,18.52
2022-09-13T23:47:52.344Z,14.45
2022-09-13T23:50:21.959Z,14.50
2022-09-13T23:52:50.020Z,16.92
2022-09-13T23:55:18.425Z,14.45
2022-09-13T23:57:46.302Z,13.55
